Time;durP1;ratioP1;P1;durP2;ratioP2;P2;SDS_P1;SDS_P2;PMS_P1;PMS_P2;Temp;Humidity;BMP_temperature;BMP_pressure;BME280_temperature;BME280_humidity;BME280_pressure;Samples;Min_cycle;Max_cycle;Signal;HPM_P1;HPM_P2
2021/11/14 00:00:53;;;;;;;19.85;11.15;;;13.40;82.20;;;;;;5025698;28;20120;-84
2021/11/14 00:03:21;;;;;;;16.75;10.23;;;13.50;82.20;;;;;;5022551;28;20022;-84
2021/11/14 00:05:48;;;;;;;11.30;8.43;;;13.50;82.20;;;;;;5019836;28;20440;-84
2021/11/14 00:08:15;;;;;;;14.48;7.70;;;13.50;82.20;;;;;;5050627;28;20488;-84
2021/11/14 00:10:54;;;;;;;12.45;8.55;;;13.50;82.10;;;;;;5036043;28;20614;-84
2021/11/14 00:13:21;;;;;;;11.10;7.65;;;13.50;82.10;;;;;;5031480;28;20030;-84
2021/11/14 00:15:46;;;;;;;11.13;7.28;;;13.50;82.10;;;;;;5033666;28;20018;-84
2021/11/14 00:18:12;;;;;;;9.88;6.65;;;13.40;82.10;;;;;;5032677;28;20038;-84
2021/11/14 00:20:39;;;;;;;10.65;6.93;;;13.40;82.10;;;;;;5019668;28;20022;-84
2021/11/14 00:23:05;;;;;;;10.60;6.32;;;13.50;82.20;;;;;;5017345;28;20021;-84
2021/11/14 00:25:31;;;;;;;14.50;7.28;;;13.50;82.00;;;;;;5015054;28;20839;-84
2021/11/14 00:28:00;;;;;;;13.43;7.05;;;13.50;82.00;;;;;;5017825;28;20037;-83
2021/11/14 00:30:26;;;;;;;15.43;6.30;;;13.40;82.00;;;;;;5024294;28;20045;-84
2021/11/14 00:32:52;;;;;;;10.30;6.45;;;13.40;82.00;;;;;;5015325;28;20076;-84
2021/11/14 00:35:19;;;;;;;12.05;7.28;;;13.40;82.00;;;;;;5034307;28;20129;-84
2021/11/14 00:37:45;;;;;;;10.55;5.72;;;13.40;82.00;;;;;;5050242;28;20034;-84
2021/11/14 00:40:15;;;;;;;14.38;6.63;;;13.40;81.80;;;;;;5023021;28;20076;-84
2021/11/14 00:42:42;;;;;;;12.23;6.50;;;13.30;81.80;;;;;;5015270;28;20495;-84
2021/11/14 00:45:26;;;;;;;9.18;6.47;;;13.30;82.10;;;;;;5016845;28;20037;-84
2021/11/14 00:47:52;;;;;;;8.63;6.35;;;13.30;82.10;;;;;;5023955;28;20106;-84
2021/11/14 00:50:43;;;;;;;11.93;6.63;;;13.40;82.10;;;;;;5023699;28;20504;-84
2021/11/14 00:53:12;;;;;;;9.88;5.90;;;13.30;82.20;;;;;;5016269;28;20026;-84
2021/11/14 00:55:39;;;;;;;10.02;6.18;;;13.30;82.10;;;;;;5030059;28;20032;-84
2021/11/14 00:58:05;;;;;;;12.52;6.05;;;13.30;82.10;;;;;;5018998;28;20041;-84
2021/11/14 01:00:32;;;;;;;11.75;6.80;;;13.40;82.00;;;;;;5022457;28;20085;-84
2021/11/14 01:02:58;;;;;;;11.73;6.18;;;13.30;82.00;;;;;;5033550;28;20061;-84
2021/11/14 01:05:25;;;;;;;9.18;5.88;;;13.30;82.00;;;;;;5028839;28;20021;-84
2021/11/14 01:08:05;;;;;;;11.48;5.85;;;13.40;81.90;;;;;;5033863;28;20044;-84
2021/11/14 01:10:35;;;;;;;10.77;6.07;;;13.40;81.90;;;;;;5019192;28;20032;-84
2021/11/14 01:13:02;;;;;;;11.98;6.13;;;13.30;81.90;;;;;;5019046;28;20285;-84
2021/11/14 01:15:28;;;;;;;13.45;6.15;;;13.30;81.90;;;;;;5019403;28;20037;-84
2021/11/14 01:17:55;;;;;;;12.57;6.20;;;13.40;82.00;;;;;;5018819;28;20026;-84
2021/11/14 01:20:25;;;;;;;8.27;5.63;;;13.30;81.90;;;;;;5024512;28;20033;-84
2021/11/14 01:22:52;;;;;;;12.45;6.07;;;13.30;81.90;;;;;;5024347;28;20033;-84
2021/11/14 01:25:19;;;;;;;8.20;5.70;;;13.40;81.90;;;;;;5026658;28;20061;-84
2021/11/14 01:27:45;;;;;;;8.20;5.32;;;13.30;82.00;;;;;;5028107;28;20065;-84
2021/11/14 01:30:50;;;;;;;12.07;5.10;;;13.30;82.00;;;;;;5020066;28;20033;-83
2021/11/14 01:33:18;;;;;;;8.35;4.70;;;13.30;82.00;;;;;;5024199;28;20034;-84
2021/11/14 01:35:44;;;;;;;9.00;5.10;;;13.30;82.00;;;;;;5019196;28;20034;-84
2021/11/14 01:38:10;;;;;;;12.60;4.97;;;13.30;82.00;;;;;;5020956;28;20057;-84
2021/11/14 01:40:45;;;;;;;10.98;5.10;;;13.30;81.90;;;;;;5018109;28;20076;-84
2021/11/14 01:43:15;;;;;;;8.15;6.00;;;13.30;82.00;;;;;;5020323;28;20026;-84
2021/11/14 01:45:41;;;;;;;10.40;5.43;;;13.20;82.20;;;;;;5040758;28;20029;-84
2021/11/14 01:48:07;;;;;;;10.45;5.18;;;13.30;82.20;;;;;;5026727;28;20032;-84
2021/11/14 01:50:34;;;;;;;8.55;5.05;;;13.30;82.00;;;;;;5016804;28;20038;-84
2021/11/14 01:53:18;;;;;;;8.25;5.18;;;13.30;81.90;;;;;;5017209;28;20025;-84
2021/11/14 01:55:46;;;;;;;8.10;5.07;;;13.30;82.10;;;;;;5026369;28;20032;-84
2021/11/14 01:58:20;;;;;;;10.23;5.47;;;13.30;82.00;;;;;;5019991;28;20424;-84
2021/11/14 02:00:54;;;;;;;10.43;5.20;;;13.20;82.00;;;;;;5019847;28;20060;-84
2021/11/14 02:03:22;;;;;;;10.18;4.75;;;13.30;82.00;;;;;;5017976;28;20026;-83
2021/11/14 02:05:48;;;;;;;9.35;5.70;;;13.30;81.90;;;;;;5029026;28;20396;-84
2021/11/14 02:08:14;;;;;;;9.57;5.95;;;13.30;81.90;;;;;;5036501;28;20029;-84
2021/11/14 02:10:45;;;;;;;8.35;4.95;;;13.30;81.90;;;;;;5025839;28;20033;-83
2021/11/14 02:13:11;;;;;;;9.48;5.00;;;13.20;81.90;;;;;;5031345;28;20032;-84
2021/11/14 02:15:38;;;;;;;9.75;5.55;;;13.20;82.10;;;;;;5032391;28;20037;-84
2021/11/14 02:18:06;;;;;;;6.50;4.40;;;13.20;82.10;;;;;;5035230;28;20030;-85
2021/11/14 02:20:32;;;;;;;12.98;5.55;;;13.20;82.10;;;;;;5020979;28;20159;-84
2021/11/14 02:22:58;;;;;;;9.57;5.07;;;13.20;82.00;;;;;;5048465;28;20159;-84
2021/11/14 02:25:24;;;;;;;8.02;4.53;;;13.30;82.00;;;;;;5031947;28;20508;-84
2021/11/14 02:27:52;;;;;;;10.52;5.00;;;13.20;82.10;;;;;;5039578;28;20029;-84
2021/11/14 02:30:21;;;;;;;7.00;4.43;;;13.20;82.10;;;;;;5035978;28;20033;-84
2021/11/14 02:33:07;;;;;;;10.63;5.07;;;13.20;82.10;;;;;;5035919;28;20056;-84
2021/11/14 02:35:34;;;;;;;6.30;4.90;;;13.20;82.20;;;;;;5037800;28;20562;-84
2021/11/14 02:38:00;;;;;;;8.38;4.60;;;13.20;82.10;;;;;;5031622;28;20045;-84
2021/11/14 02:40:26;;;;;;;10.05;5.15;;;13.20;82.10;;;;;;5034519;28;20477;-84
2021/11/14 02:42:52;;;;;;;10.45;5.25;;;13.20;82.00;;;;;;5017105;28;20517;-84
2021/11/14 02:45:21;;;;;;;6.68;4.13;;;13.20;81.90;;;;;;5019954;28;20026;-84
2021/11/14 02:47:48;;;;;;;9.40;4.80;;;13.20;82.00;;;;;;5025616;28;20466;-84
2021/11/14 02:50:18;;;;;;;8.63;4.97;;;13.20;82.00;;;;;;5029600;28;20009;-83
2021/11/14 02:52:44;;;;;;;8.77;4.80;;;13.10;82.10;;;;;;5036106;28;20075;-84
2021/11/14 02:55:15;;;;;;;8.38;5.10;;;13.20;82.20;;;;;;5036656;28;20033;-84
2021/11/14 02:57:41;;;;;;;10.32;4.88;;;13.10;82.10;;;;;;5020084;28;20026;-84
2021/11/14 03:00:11;;;;;;;10.02;4.63;;;13.10;82.10;;;;;;5025796;28;20036;-84
2021/11/14 03:02:37;;;;;;;10.18;4.82;;;13.10;82.20;;;;;;5029917;28;20061;-84
2021/11/14 03:05:10;;;;;;;9.75;4.85;;;13.20;82.20;;;;;;5017173;28;20423;-84
2021/11/14 03:07:36;;;;;;;12.13;5.05;;;13.10;82.30;;;;;;5026182;28;20045;-84
2021/11/14 03:10:05;;;;;;;9.68;5.30;;;13.20;82.20;;;;;;5020614;28;20018;-84
2021/11/14 03:12:31;;;;;;;7.88;4.82;;;13.10;82.30;;;;;;5023346;28;20061;-84
2021/11/14 03:14:58;;;;;;;8.93;5.05;;;13.10;82.20;;;;;;5018590;28;20022;-84
2021/11/14 03:17:24;;;;;;;8.07;4.38;;;13.10;82.00;;;;;;5022841;28;20131;-84
2021/11/14 03:19:50;;;;;;;6.35;4.55;;;13.10;82.10;;;;;;5026952;28;20029;-84
2021/11/14 03:22:16;;;;;;;10.15;4.88;;;13.10;82.10;;;;;;5035507;28;20029;-84
2021/11/14 03:24:42;;;;;;;10.93;5.35;;;13.10;82.10;;;;;;5021121;28;20499;-84
2021/11/14 03:27:07;;;;;;;6.75;4.25;;;13.10;82.00;;;;;;5016738;28;20435;-84
2021/11/14 03:29:33;;;;;;;9.82;6.20;;;13.10;82.30;;;;;;5017819;28;20033;-84
2021/11/14 03:31:59;;;;;;;10.65;4.45;;;13.00;82.30;;;;;;5035117;28;20072;-84
2021/11/14 03:34:25;;;;;;;9.73;4.25;;;13.00;82.40;;;;;;5017923;28;20030;-84
2021/11/14 03:36:50;;;;;;;7.50;4.55;;;13.00;82.20;;;;;;5049582;28;20025;-84
2021/11/14 03:39:16;;;;;;;8.13;4.13;;;13.00;82.20;;;;;;5022188;28;20392;-84
2021/11/14 03:41:45;;;;;;;8.00;4.10;;;13.10;82.20;;;;;;5018412;28;20030;-82
2021/11/14 03:44:12;;;;;;;6.65;4.47;;;13.10;82.30;;;;;;5016151;28;20077;-84
2021/11/14 03:46:38;;;;;;;8.77;3.95;;;13.00;82.00;;;;;;5025459;28;20022;-84
2021/11/14 03:49:05;;;;;;;9.10;4.32;;;13.00;82.20;;;;;;5036420;28;20040;-84
2021/11/14 03:51:32;;;;;;;9.73;4.22;;;13.00;82.20;;;;;;5030732;28;20057;-84
2021/11/14 03:53:58;;;;;;;9.88;4.32;;;13.00;82.10;;;;;;5017992;28;20029;-84
2021/11/14 03:56:25;;;;;;;7.80;4.38;;;13.00;82.20;;;;;;5031116;28;20021;-84
2021/11/14 03:58:51;;;;;;;8.88;5.00;;;13.10;82.10;;;;;;5017866;28;20026;-84
2021/11/14 04:01:20;;;;;;;9.02;4.25;;;13.00;81.90;;;;;;5022767;28;20487;-84
2021/11/14 04:03:47;;;;;;;7.03;4.30;;;13.00;81.90;;;;;;5035402;28;20022;-84
2021/11/14 04:06:15;;;;;;;8.57;4.00;;;13.00;81.80;;;;;;5039268;28;20033;-84
2021/11/14 04:08:41;;;;;;;10.88;4.70;;;13.00;81.80;;;;;;5055291;28;20468;-84
2021/11/14 04:11:07;;;;;;;10.77;4.85;;;13.00;81.80;;;;;;5025666;28;20147;-84
2021/11/14 04:13:34;;;;;;;9.00;4.18;;;13.00;81.90;;;;;;5015677;28;20045;-84
2021/11/14 04:16:03;;;;;;;8.60;4.13;;;13.00;82.00;;;;;;5044049;28;20041;-84
2021/11/14 04:18:29;;;;;;;8.95;4.60;;;12.90;82.00;;;;;;5034845;28;20053;-84
2021/11/14 04:20:55;;;;;;;8.98;4.10;;;13.00;82.00;;;;;;5035293;28;20029;-84
2021/11/14 04:23:21;;;;;;;7.63;4.07;;;12.90;82.00;;;;;;5025999;28;20515;-84
2021/11/14 04:25:49;;;;;;;8.52;4.72;;;12.90;81.70;;;;;;5035240;28;20053;-84
2021/11/14 04:28:15;;;;;;;9.30;4.78;;;12.80;81.90;;;;;;5036133;28;20053;-84
2021/11/14 04:30:42;;;;;;;6.97;3.60;;;12.90;82.10;;;;;;5035104;28;20090;-84
2021/11/14 04:33:08;;;;;;;6.55;4.32;;;12.90;82.10;;;;;;5031733;28;20396;-84
2021/11/14 04:35:35;;;;;;;9.15;4.38;;;12.90;81.90;;;;;;5015360;28;20017;-84
2021/11/14 04:38:24;;;;;;;10.75;4.32;;;12.90;81.70;;;;;;5015280;28;20034;-84
2021/11/14 04:40:50;;;;;;;7.97;4.05;;;12.90;81.80;;;;;;5019292;28;20037;-84
2021/11/14 04:43:17;;;;;;;8.85;4.30;;;12.90;81.80;;;;;;5015239;28;20036;-84
2021/11/14 04:45:44;;;;;;;10.60;4.53;;;12.90;81.70;;;;;;5017617;28;20026;-84
2021/11/14 04:48:11;;;;;;;7.82;3.90;;;12.80;81.60;;;;;;5015394;28;20060;-84
2021/11/14 04:50:37;;;;;;;8.85;4.50;;;12.80;81.70;;;;;;5017177;28;20022;-83
2021/11/14 04:53:05;;;;;;;8.63;3.97;;;12.80;81.80;;;;;;5015224;28;20053;-84
2021/11/14 04:55:31;;;;;;;5.43;4.03;;;12.80;81.60;;;;;;5024053;28;20032;-84
2021/11/14 04:57:57;;;;;;;5.72;3.78;;;12.80;81.60;;;;;;5024909;28;20045;-84
2021/11/14 05:00:29;;;;;;;7.47;4.10;;;12.80;81.60;;;;;;5015245;28;20078;-84
2021/11/14 05:02:55;;;;;;;11.25;4.15;;;12.80;81.50;;;;;;5023276;28;20037;-84
2021/11/14 05:05:21;;;;;;;7.22;3.17;;;12.80;81.50;;;;;;5015169;28;20030;-84
2021/11/14 05:07:48;;;;;;;8.55;3.72;;;12.80;81.50;;;;;;5046235;28;20035;-84
2021/11/14 05:10:14;;;;;;;5.40;3.65;;;12.80;81.60;;;;;;5054668;28;20029;-84
2021/11/14 05:12:40;;;;;;;5.72;3.40;;;12.80;81.60;;;;;;5051537;28;20037;-84
2021/11/14 05:15:07;;;;;;;7.35;3.60;;;12.70;81.70;;;;;;5014768;28;20030;-84
2021/11/14 05:17:34;;;;;;;6.70;3.50;;;12.70;81.70;;;;;;5014959;28;20113;-84
2021/11/14 05:19:59;;;;;;;6.85;3.75;;;12.70;81.70;;;;;;5016834;28;20374;-84
2021/11/14 05:22:25;;;;;;;13.90;4.25;;;12.60;81.60;;;;;;5014900;28;20037;-84
2021/11/14 05:24:51;;;;;;;5.90;3.33;;;12.50;81.50;;;;;;5016483;28;20065;-84
2021/11/14 05:27:17;;;;;;;6.65;3.70;;;12.50;81.60;;;;;;5014810;28;20026;-84
2021/11/14 05:29:46;;;;;;;7.05;3.85;;;12.50;81.80;;;;;;5015828;28;20029;-83
2021/11/14 05:32:12;;;;;;;7.15;3.67;;;12.50;81.60;;;;;;5015237;28;20022;-84
2021/11/14 05:34:38;;;;;;;8.88;3.78;;;12.40;81.60;;;;;;5015063;28;20076;-83
2021/11/14 05:37:04;;;;;;;7.35;3.67;;;12.50;81.90;;;;;;5016349;28;20066;-84
2021/11/14 05:39:30;;;;;;;7.45;3.72;;;12.50;81.80;;;;;;5030050;28;20018;-84
2021/11/14 05:41:56;;;;;;;5.40;3.88;;;12.50;81.70;;;;;;5016296;28;20034;-84
2021/11/14 05:44:21;;;;;;;6.70;3.42;;;12.40;81.60;;;;;;5014723;28;20036;-83
2021/11/14 05:46:51;;;;;;;8.02;4.00;;;12.40;81.60;;;;;;5034317;28;20030;-84
2021/11/14 05:49:17;;;;;;;5.60;3.13;;;12.40;81.80;;;;;;5018855;28;20033;-84
2021/11/14 05:51:43;;;;;;;8.27;3.53;;;12.40;81.90;;;;;;5016863;28;20301;-84
2021/11/14 05:54:09;;;;;;;7.45;3.83;;;12.50;82.00;;;;;;5035398;28;20033;-84
2021/11/14 05:56:35;;;;;;;5.22;3.88;;;12.50;81.80;;;;;;5025357;28;20022;-83
2021/11/14 06:01:51;;;;;;;5.80;3.72;;;12.50;81.50;;;;;;5017894;28;20045;-83
2021/11/14 06:07:01;;;;;;;4.22;3.13;;;12.50;81.50;;;;;;5034633;28;20044;-84
2021/11/14 06:09:29;;;;;;;5.53;3.13;;;12.50;81.60;;;;;;5022664;28;20030;-84
2021/11/14 06:11:55;;;;;;;5.00;3.38;;;12.50;81.70;;;;;;5018427;28;20110;-84
2021/11/14 06:14:21;;;;;;;6.28;3.38;;;12.40;81.60;;;;;;5017963;28;20030;-84
2021/11/14 06:16:47;;;;;;;5.50;3.17;;;12.50;81.60;;;;;;5034520;28;20022;-84
2021/11/14 06:19:12;;;;;;;5.10;3.33;;;12.40;81.60;;;;;;5017922;28;20038;-84
2021/11/14 06:21:38;;;;;;;4.85;3.42;;;12.40;81.70;;;;;;5019599;28;20469;-84
2021/11/14 06:24:04;;;;;;;5.00;3.55;;;12.40;81.60;;;;;;5017572;28;20037;-83
2021/11/14 06:26:33;;;;;;;4.13;3.00;;;12.50;81.30;;;;;;5018196;28;20038;-84
2021/11/14 06:28:58;;;;;;;5.70;3.28;;;12.40;81.50;;;;;;5018123;28;20030;-84
2021/11/14 06:31:24;;;;;;;6.38;3.53;;;12.40;81.50;;;;;;5017688;28;20037;-84
2021/11/14 06:33:50;;;;;;;6.10;2.78;;;12.40;81.60;;;;;;5019260;28;20025;-83
2021/11/14 06:36:16;;;;;;;5.65;3.50;;;12.50;81.70;;;;;;5017444;28;20033;-84
2021/11/14 06:38:42;;;;;;;6.50;3.67;;;12.40;81.60;;;;;;5018100;28;20077;-84
2021/11/14 06:41:07;;;;;;;7.07;4.05;;;12.40;81.50;;;;;;5032701;28;20030;-84
2021/11/14 06:43:53;;;;;;;4.85;3.00;;;12.50;81.30;;;;;;5018067;28;20064;-84
2021/11/14 06:46:18;;;;;;;5.03;3.10;;;12.50;81.20;;;;;;5015909;28;20065;-84
2021/11/14 06:48:44;;;;;;;11.75;3.75;;;12.50;81.10;;;;;;5017032;28;20033;-83
2021/11/14 06:51:10;;;;;;;5.10;2.70;;;12.50;81.20;;;;;;5018544;28;20022;-83
2021/11/14 06:53:35;;;;;;;4.72;3.08;;;12.50;81.50;;;;;;5017338;28;20586;-84
2021/11/14 06:56:01;;;;;;;5.38;3.15;;;12.50;81.50;;;;;;5018945;28;20022;-83
2021/11/14 06:58:27;;;;;;;4.68;2.70;;;12.50;81.50;;;;;;5017285;28;20404;-84
2021/11/14 07:00:53;;;;;;;5.80;3.03;;;12.50;81.30;;;;;;5018271;28;20037;-83
2021/11/14 07:03:19;;;;;;;3.90;2.85;;;12.50;81.20;;;;;;5015710;28;20024;-83
2021/11/14 07:05:45;;;;;;;4.63;3.10;;;12.40;81.10;;;;;;5019116;28;20063;-83
2021/11/14 07:08:11;;;;;;;5.88;3.03;;;12.50;81.10;;;;;;5025792;28;20030;-84
2021/11/14 07:10:36;;;;;;;3.42;2.45;;;12.50;81.10;;;;;;5016560;28;20036;-84
2021/11/14 07:13:03;;;;;;;5.45;3.25;;;12.40;81.20;;;;;;5018641;28;20022;-84
2021/11/14 07:15:29;;;;;;;9.15;3.22;;;12.40;81.50;;;;;;5016690;28;20025;-84
2021/11/14 07:17:55;;;;;;;6.20;2.90;;;12.50;81.50;;;;;;5017350;28;20041;-84
2021/11/14 07:20:20;;;;;;;12.80;3.55;;;12.40;81.40;;;;;;5024135;28;20029;-82
2021/11/14 07:22:47;;;;;;;7.90;3.78;;;12.40;81.40;;;;;;5029139;28;20041;-85
2021/11/14 07:25:17;;;;;;;5.88;3.30;;;12.40;81.40;;;;;;5030855;28;20136;-82
2021/11/14 07:27:44;;;;;;;6.63;2.67;;;12.40;81.10;;;;;;5026852;28;20036;-78
2021/11/14 07:30:11;;;;;;;6.55;3.10;;;12.50;81.00;;;;;;5031774;28;20056;-79
2021/11/14 07:32:40;;;;;;;5.15;3.22;;;12.40;81.00;;;;;;5028657;28;20057;-78
2021/11/14 07:35:11;;;;;;;7.47;3.08;;;12.50;81.00;;;;;;5024430;28;20075;-79
2021/11/14 07:37:38;;;;;;;7.43;3.38;;;12.50;81.10;;;;;;5024649;28;20022;-79
2021/11/14 07:40:05;;;;;;;6.75;2.83;;;12.50;81.20;;;;;;5024944;28;20037;-79
2021/11/14 07:42:32;;;;;;;4.25;2.97;;;12.50;81.10;;;;;;5025026;28;20498;-78
2021/11/14 07:44:57;;;;;;;7.43;3.25;;;12.50;80.80;;;;;;5024557;28;20026;-79
2021/11/14 07:47:23;;;;;;;7.57;3.47;;;12.50;80.70;;;;;;5027575;28;20484;-83
2021/11/14 07:49:49;;;;;;;8.95;3.38;;;12.50;80.70;;;;;;5015676;28;20026;-81
2021/11/14 07:52:14;;;;;;;4.68;3.25;;;12.50;80.80;;;;;;5015784;28;20029;-84
2021/11/14 07:54:40;;;;;;;6.28;3.33;;;12.50;80.80;;;;;;5015989;28;20032;-82
2021/11/14 07:57:06;;;;;;;6.00;3.28;;;12.60;80.70;;;;;;5015462;28;20025;-78
2021/11/14 07:59:32;;;;;;;4.05;2.80;;;12.60;80.90;;;;;;5015988;28;20022;-78
2021/11/14 08:05:55;;;;;;;9.73;3.22;;;12.40;81.00;;;;;;5066042;28;20988;-82
2021/11/14 08:08:20;;;;;;;6.78;3.78;;;12.30;81.50;;;;;;5059089;28;20021;-79
2021/11/14 08:10:46;;;;;;;8.90;3.45;;;12.30;81.70;;;;;;5039700;28;20041;-77
2021/11/14 08:13:12;;;;;;;6.90;3.30;;;12.40;81.70;;;;;;5033697;28;20053;-79
2021/11/14 08:15:37;;;;;;;4.57;2.92;;;12.50;81.20;;;;;;5050559;28;20368;-79
2021/11/14 08:18:04;;;;;;;4.75;3.03;;;12.60;81.00;;;;;;5047632;28;20026;-78
2021/11/14 08:20:33;;;;;;;7.07;3.80;;;12.70;79.90;;;;;;5044302;28;20531;-80
2021/11/14 08:23:00;;;;;;;7.18;3.75;;;12.80;80.20;;;;;;5046737;28;20026;-78
2021/11/14 08:25:28;;;;;;;6.38;4.10;;;12.80;79.90;;;;;;5031945;28;20049;-77
2021/11/14 08:27:54;;;;;;;6.60;3.53;;;12.80;79.70;;;;;;5045667;28;20211;-79
2021/11/14 08:30:20;;;;;;;4.88;3.65;;;12.80;79.70;;;;;;5050876;28;20159;-82
2021/11/14 08:32:47;;;;;;;9.75;3.97;;;12.90;79.50;;;;;;5046666;28;20036;-82
2021/11/14 08:35:13;;;;;;;6.70;3.50;;;12.90;79.70;;;;;;5047965;28;20210;-78
2021/11/14 08:37:39;;;;;;;5.95;3.25;;;12.90;79.70;;;;;;5049493;28;20029;-77
2021/11/14 08:40:07;;;;;;;6.53;3.42;;;12.90;79.40;;;;;;5050968;28;20028;-77
2021/11/14 08:42:33;;;;;;;8.55;3.55;;;13.00;79.10;;;;;;5051579;28;20029;-78
2021/11/14 08:44:59;;;;;;;6.65;4.05;;;13.00;79.00;;;;;;5050240;28;20051;-78
2021/11/14 08:47:25;;;;;;;6.70;3.42;;;13.00;78.60;;;;;;5051545;28;20025;-78
2021/11/14 08:49:50;;;;;;;5.70;3.42;;;13.10;78.70;;;;;;5051396;28;20035;-78
2021/11/14 08:52:16;;;;;;;8.57;3.83;;;13.10;78.10;;;;;;5050405;28;20029;-77
2021/11/14 08:54:42;;;;;;;7.50;3.63;;;13.20;78.40;;;;;;5051304;28;20035;-78
2021/11/14 08:57:09;;;;;;;7.85;3.58;;;13.20;78.30;;;;;;5051318;28;20396;-77
2021/11/14 08:59:35;;;;;;;4.57;3.28;;;13.20;77.90;;;;;;5050409;28;20040;-78
2021/11/14 09:02:02;;;;;;;4.03;3.35;;;13.20;77.90;;;;;;5049422;28;20096;-78
2021/11/14 09:04:28;;;;;;;5.00;3.50;;;13.20;77.50;;;;;;5049535;28;20059;-77
2021/11/14 09:06:55;;;;;;;11.05;5.82;;;13.20;77.70;;;;;;5055992;28;20033;-78
2021/11/14 09:09:22;;;;;;;5.68;3.58;;;13.20;76.70;;;;;;5070973;28;20024;-79
2021/11/14 09:11:48;;;;;;;8.32;3.30;;;13.20;77.40;;;;;;5065649;28;20781;-78
2021/11/14 09:14:15;;;;;;;5.70;3.30;;;13.20;77.40;;;;;;5050873;28;20496;-78
2021/11/14 09:16:42;;;;;;;8.43;3.45;;;13.30;77.20;;;;;;5039398;28;20040;-78
2021/11/14 09:19:08;;;;;;;6.75;3.42;;;13.30;77.20;;;;;;5036871;28;20506;-78
2021/11/14 09:21:38;;;;;;;6.13;3.28;;;13.40;77.30;;;;;;5051574;28;20097;-77
2021/11/14 09:24:06;;;;;;;5.75;3.63;;;13.40;77.10;;;;;;5031640;28;20026;-78
2021/11/14 09:26:32;;;;;;;6.53;3.60;;;13.50;77.10;;;;;;5029630;28;20115;-78
2021/11/14 09:28:58;;;;;;;7.70;3.97;;;13.50;76.80;;;;;;5034615;28;20016;-77
2021/11/14 09:31:23;;;;;;;11.65;5.70;;;13.50;76.90;;;;;;5032735;28;20037;-78
2021/11/14 09:33:51;;;;;;;6.97;4.18;;;13.60;76.60;;;;;;5051930;28;20025;-77
2021/11/14 09:36:17;;;;;;;10.15;4.45;;;13.60;75.80;;;;;;5050573;28;20049;-76
2021/11/14 09:38:43;;;;;;;22.88;15.85;;;13.70;76.10;;;;;;5035125;28;20040;-77
2021/11/14 09:41:09;;;;;;;14.32;9.50;;;13.70;76.20;;;;;;5036886;28;20096;-77
2021/11/14 09:43:36;;;;;;;9.77;6.60;;;13.70;75.90;;;;;;5036620;28;20044;-77
2021/11/14 09:46:02;;;;;;;7.18;3.85;;;13.70;75.50;;;;;;5046579;28;20028;-77
2021/11/14 09:48:28;;;;;;;4.55;3.17;;;13.70;75.50;;;;;;5028723;28;20029;-78
2021/11/14 09:50:55;;;;;;;6.32;3.28;;;13.80;75.90;;;;;;5036283;28;20048;-78
2021/11/14 09:53:24;;;;;;;7.47;3.88;;;13.70;75.50;;;;;;5031189;28;20067;-78
2021/11/14 09:55:50;;;;;;;7.18;4.53;;;13.70;75.50;;;;;;5033173;28;20091;-78
2021/11/14 09:58:16;;;;;;;10.32;4.45;;;13.70;75.20;;;;;;5034840;28;20109;-79
2021/11/14 10:00:44;;;;;;;5.97;3.35;;;13.80;75.30;;;;;;5034241;28;20513;-77
2021/11/14 10:03:10;;;;;;;5.15;3.20;;;13.80;74.90;;;;;;5030576;28;20029;-78
2021/11/14 10:05:37;;;;;;;4.75;2.90;;;13.90;74.90;;;;;;5033257;28;20037;-77
2021/11/14 10:08:07;;;;;;;4.97;2.63;;;14.00;74.60;;;;;;5032666;28;20080;-78
2021/11/14 10:10:44;;;;;;;4.18;2.30;;;14.10;73.80;;;;;;5032320;28;20040;-77
2021/11/14 10:13:14;;;;;;;5.57;2.60;;;14.20;73.20;;;;;;5035544;28;20029;-77
2021/11/14 10:15:41;;;;;;;5.37;2.73;;;14.20;73.50;;;;;;5035529;28;20061;-78
2021/11/14 10:18:07;;;;;;;5.80;3.25;;;14.30;73.40;;;;;;5034980;28;20037;-77
2021/11/14 10:20:37;;;;;;;8.77;4.03;;;14.20;71.80;;;;;;5033331;28;20604;-78
2021/11/14 10:23:14;;;;;;;6.75;2.78;;;14.20;71.40;;;;;;5031025;28;20033;-78
2021/11/14 10:25:42;;;;;;;7.82;4.15;;;14.20;70.70;;;;;;5029065;28;20646;-77
2021/11/14 10:28:08;;;;;;;5.43;3.10;;;14.20;71.50;;;;;;5030726;28;20399;-77
2021/11/14 10:30:39;;;;;;;25.67;15.00;;;14.30;71.20;;;;;;5032457;28;20108;-77
2021/11/14 10:33:08;;;;;;;12.48;6.43;;;14.40;71.10;;;;;;5034111;28;20025;-78
2021/11/14 10:35:36;;;;;;;8.65;5.53;;;14.60;71.40;;;;;;5033551;28;20067;-77
2021/11/14 10:38:11;;;;;;;9.93;4.25;;;14.60;69.90;;;;;;5023798;28;20048;-77
2021/11/14 10:40:49;;;;;;;8.07;3.45;;;14.70;69.60;;;;;;5049695;28;20508;-77
2021/11/14 10:43:18;;;;;;;3.70;1.85;;;14.70;69.20;;;;;;5033665;28;20033;-77
2021/11/14 10:45:45;;;;;;;2.67;1.88;;;14.80;69.10;;;;;;5045702;28;20021;-77
2021/11/14 10:48:16;;;;;;;3.95;2.13;;;15.00;69.20;;;;;;5025396;28;20030;-77
2021/11/14 10:50:49;;;;;;;3.72;1.80;;;14.80;68.20;;;;;;5048623;28;20032;-78
2021/11/14 10:53:22;;;;;;;4.05;1.75;;;14.80;68.90;;;;;;5027951;28;20044;-77
2021/11/14 10:55:54;;;;;;;6.15;3.33;;;14.80;68.40;;;;;;5040542;28;20029;-77
2021/11/14 10:58:22;;;;;;;9.60;4.68;;;14.90;68.30;;;;;;5034052;28;20052;-78
2021/11/14 11:00:51;;;;;;;10.48;5.03;;;14.80;67.40;;;;;;5050213;28;20052;-77
2021/11/14 11:03:17;;;;;;;3.90;2.63;;;14.90;67.70;;;;;;5031982;28;20040;-77
2021/11/14 11:05:44;;;;;;;3.80;2.40;;;14.80;67.00;;;;;;5031044;28;20101;-77
2021/11/14 11:08:21;;;;;;;2.58;1.60;;;14.80;67.90;;;;;;5033677;28;20025;-77
2021/11/14 11:10:52;;;;;;;5.43;1.95;;;14.90;66.90;;;;;;5041456;28;20133;-77
2021/11/14 11:13:33;;;;;;;2.63;1.77;;;14.90;66.50;;;;;;5020312;28;20017;-78
2021/11/14 11:16:03;;;;;;;2.30;1.65;;;15.00;66.00;;;;;;5033743;28;20037;-77
2021/11/14 11:18:28;;;;;;;4.72;1.73;;;15.00;67.30;;;;;;5047203;28;20032;-78
2021/11/14 11:20:57;;;;;;;2.22;1.23;;;15.20;66.40;;;;;;5033967;28;20045;-78
2021/11/14 11:23:26;;;;;;;3.55;1.40;;;15.20;65.20;;;;;;5030654;28;20033;-77
2021/11/14 11:25:57;;;;;;;2.60;1.58;;;15.20;65.70;;;;;;5034660;28;20041;-77
2021/11/14 11:28:29;;;;;;;1.90;1.20;;;15.20;65.20;;;;;;5066797;28;20025;-77
2021/11/14 11:31:00;;;;;;;5.05;1.30;;;15.30;65.80;;;;;;5046447;28;20037;-76
2021/11/14 11:33:29;;;;;;;2.47;1.35;;;15.30;64.40;;;;;;5030357;28;20083;-77
2021/11/14 11:35:55;;;;;;;4.13;1.20;;;15.20;63.70;;;;;;5032393;28;20499;-83
2021/11/14 11:38:21;;;;;;;10.48;1.90;;;15.10;63.80;;;;;;5032328;28;20163;-82
2021/11/14 11:40:48;;;;;;;2.95;1.50;;;15.20;64.40;;;;;;5031743;28;20071;-80
2021/11/14 11:43:15;;;;;;;3.60;1.33;;;15.10;64.10;;;;;;5030419;28;20492;-76
2021/11/14 11:45:44;;;;;;;2.47;1.33;;;15.10;64.30;;;;;;5032936;28;20028;-74
2021/11/14 11:48:23;;;;;;;5.60;1.33;;;15.10;64.80;;;;;;5033857;28;20048;-74
2021/11/14 11:50:50;;;;;;;3.08;1.10;;;15.10;65.30;;;;;;5034717;28;20021;-74
2021/11/14 11:53:27;;;;;;;4.45;1.67;;;15.20;64.80;;;;;;5035111;28;20076;-74
2021/11/14 11:56:16;;;;;;;4.40;1.35;;;15.20;65.00;;;;;;5033244;28;20025;-74
2021/11/14 11:58:46;;;;;;;6.00;1.27;;;15.10;63.40;;;;;;5032279;28;20030;-74
2021/11/14 12:01:28;;;;;;;4.47;1.60;;;15.10;64.20;;;;;;5033212;28;20500;-76
2021/11/14 12:03:55;;;;;;;1.73;0.95;;;15.10;64.00;;;;;;5032541;28;20049;-75
2021/11/14 12:06:27;;;;;;;2.95;1.20;;;14.90;63.90;;;;;;5037062;28;20080;-75
2021/11/14 12:08:57;;;;;;;2.65;1.33;;;15.00;63.90;;;;;;5044955;28;20109;-76
2021/11/14 12:11:36;;;;;;;3.35;1.27;;;15.00;64.50;;;;;;5032282;28;20028;-75
2021/11/14 12:14:13;;;;;;;2.20;1.08;;;15.00;64.20;;;;;;5034775;28;20032;-75
2021/11/14 12:16:39;;;;;;;2.67;1.38;;;15.00;64.70;;;;;;5034745;28;20029;-76
2021/11/14 12:19:05;;;;;;;7.18;1.40;;;15.10;64.30;;;;;;5033682;28;20056;-76
2021/11/14 12:21:31;;;;;;;3.50;1.48;;;15.00;64.40;;;;;;5034647;28;20484;-76
2021/11/14 12:24:06;;;;;;;3.00;1.20;;;15.20;65.10;;;;;;5033327;28;20064;-76
2021/11/14 12:26:35;;;;;;;2.28;1.20;;;15.30;65.00;;;;;;5034651;28;20476;-76
2021/11/14 12:29:07;;;;;;;2.50;1.00;;;15.30;64.90;;;;;;5033800;28;20052;-76
2021/11/14 12:31:49;;;;;;;5.18;1.48;;;15.30;63.60;;;;;;5033299;28;20581;-76
2021/11/14 12:34:32;;;;;;;3.17;1.20;;;15.30;64.50;;;;;;5034702;28;20415;-76
2021/11/14 12:37:08;;;;;;;3.20;1.23;;;15.30;63.40;;;;;;5034988;28;20030;-76
2021/11/14 12:39:35;;;;;;;2.28;1.20;;;15.20;64.70;;;;;;5033832;28;20045;-76
2021/11/14 12:42:08;;;;;;;5.82;1.30;;;15.20;64.60;;;;;;5033716;28;20021;-75
2021/11/14 12:44:45;;;;;;;3.20;1.13;;;15.20;64.60;;;;;;5034628;28;20112;-76
2021/11/14 12:47:19;;;;;;;2.10;1.30;;;15.20;65.10;;;;;;5034627;28;20028;-76
2021/11/14 12:49:47;;;;;;;1.95;0.90;;;15.20;65.30;;;;;;5034582;28;20029;-76
2021/11/14 12:52:29;;;;;;;2.30;1.00;;;15.20;65.70;;;;;;5036687;28;20025;-75
2021/11/14 12:55:03;;;;;;;2.28;1.10;;;15.10;65.20;;;;;;5038265;28;20496;-76
2021/11/14 12:57:44;;;;;;;3.97;1.73;;;15.10;65.90;;;;;;5036726;28;20041;-75
2021/11/14 13:00:12;;;;;;;1.67;1.10;;;15.10;66.00;;;;;;5036497;28;20120;-76